Augusta, Maine
Current Conditions -  °F | °C
As of 12:53 PM on Saturday 25 Oct 2014 (Local Time) from KAUG Reporting Station
Clear Clear  
Wind Chill: 15°   Ceiling: Unl
Heat Index: 15°   Visibility: 10mi
Dew Point:   Wind: 5mph
Humidity: 44%   Direction: NA
Pressure: 29.61"   Gusts: NA
Location:  44.32°N, 69.78°W
Report Text: KAUG 251653Z AUTO VRB04KT 10SM CLR 15/03 A2961 RMK AO2 SLP026 T01500028
Loading
Personal Weather Stations






























Interactive Weather Map
Tropical Storm Tracking
New forecast layout! Learn more

10-Day Weather Forecast

Advertisements
Track Severe Weather on mobile